createdAt,value
2023-08-18T00:01:15.485Z,102061.06
2023-08-18T00:03:18.310Z,102065.50
2023-08-18T00:05:21.060Z,102061.94
2023-08-18T00:07:24.235Z,102067.22
2023-08-18T00:09:26.974Z,102063.69
2023-08-18T00:11:29.710Z,102063.69
2023-08-18T00:13:31.443Z,102061.94
2023-08-18T00:15:34.394Z,102065.50
2023-08-18T00:17:37.655Z,102072.63
2023-08-18T00:19:39.372Z,102069.97
2023-08-18T00:21:42.218Z,102069.97
2023-08-18T00:23:46.979Z,102065.53
2023-08-18T00:25:49.697Z,102062.88
2023-08-18T00:27:55.364Z,102053.13
2023-08-18T00:29:58.063Z,102049.53
2023-08-18T00:32:01.062Z,102044.19
2023-08-18T00:34:04.381Z,102040.63
2023-08-18T00:36:07.354Z,102038.84
2023-08-18T00:38:09.082Z,102040.63
2023-08-18T00:40:13.996Z,102034.44
2023-08-18T00:42:16.683Z,102035.34
2023-08-18T00:44:19.428Z,102044.19
2023-08-18T00:46:22.439Z,102035.25
2023-08-18T00:48:25.690Z,102039.72
2023-08-18T00:50:28.592Z,102030.84
2023-08-18T00:52:32.226Z,102034.38
2023-08-18T00:54:35.335Z,102040.59
2023-08-18T00:56:39.404Z,102037.91
2023-08-18T00:58:42.599Z,102036.16
2023-08-18T01:00:47.033Z,102035.25
2023-08-18T01:02:48.812Z,102029.03
2023-08-18T01:04:51.791Z,102025.50
2023-08-18T01:06:53.555Z,102029.03
2023-08-18T01:08:57.674Z,102025.50
2023-08-18T01:11:06.750Z,102027.28
2023-08-18T01:13:16.262Z,102021.09
2023-08-18T01:15:22.346Z,102019.28
2023-08-18T01:17:36.707Z,102021.94
2023-08-18T01:19:40.045Z,102012.13
2023-08-18T01:21:44.282Z,102008.59
2023-08-18T01:23:48.355Z,102001.47
2023-08-18T01:25:51.126Z,102008.59
2023-08-18T01:27:55.833Z,102013.00
2023-08-18T01:29:59.052Z,102011.28
2023-08-18T01:32:04.877Z,102006.78
2023-08-18T01:34:12.131Z,102005.00
2023-08-18T01:36:18.856Z,102010.28
2023-08-18T01:38:26.905Z,101998.72
2023-08-18T01:40:32.959Z,101997.84
2023-08-18T01:42:36.129Z,101997.84
2023-08-18T01:44:38.854Z,101994.31
2023-08-18T01:46:42.528Z,101989.84
2023-08-18T01:48:45.742Z,101985.44
2023-08-18T01:50:48.850Z,101984.56
2023-08-18T01:52:51.577Z,101986.38
2023-08-18T01:54:54.316Z,101986.38
2023-08-18T01:57:00.179Z,101989.91
2023-08-18T01:59:04.685Z,101991.72
2023-08-18T02:01:08.035Z,101994.38
2023-08-18T02:03:10.855Z,101989.03
2023-08-18T02:05:13.649Z,101994.38
2023-08-18T02:07:16.392Z,101997.97
2023-08-18T02:09:19.125Z,101989.97
2023-08-18T02:11:21.840Z,101986.38
2023-08-18T02:13:24.916Z,101989.03
2023-08-18T02:15:27.787Z,101981.97
2023-08-18T02:17:31.024Z,101981.97
2023-08-18T02:19:34.046Z,101976.63
2023-08-18T02:21:36.739Z,101975.81
2023-08-18T02:23:39.454Z,101968.72
2023-08-18T02:25:42.161Z,101960.72
2023-08-18T02:27:44.294Z,101965.25
2023-08-18T02:29:48.347Z,101956.38
2023-08-18T02:31:51.106Z,101960.03
2023-08-18T02:33:53.865Z,101953.88
2023-08-18T02:35:56.856Z,101952.13
2023-08-18T02:37:59.560Z,101947.78
2023-08-18T02:40:02.297Z,101945.19
2023-08-18T02:42:06.090Z,101955.06
2023-08-18T02:44:08.814Z,101949.78
2023-08-18T02:46:12.898Z,101954.28
2023-08-18T02:48:14.820Z,101951.66
2023-08-18T02:50:17.681Z,101948.13
2023-08-18T02:52:20.408Z,101950.84
2023-08-18T02:54:23.173Z,101946.44
2023-08-18T02:56:25.921Z,101953.56
2023-08-18T02:58:29.346Z,101957.13
2023-08-18T03:00:32.957Z,101946.50
2023-08-18T03:02:37.072Z,101958.91
2023-08-18T03:04:39.818Z,101953.56
2023-08-18T03:06:42.592Z,101955.38
2023-08-18T03:08:45.377Z,101954.50
2023-08-18T03:10:57.044Z,101953.63
2023-08-18T03:12:59.772Z,101944.81
2023-08-18T03:15:02.524Z,101946.69
2023-08-18T03:17:05.251Z,101948.53
2023-08-18T03:19:09.309Z,101952.19
2023-08-18T03:21:12.177Z,101948.66
2023-08-18T03:23:15.925Z,101954.06
2023-08-18T03:25:18.818Z,101952.38
2023-08-18T03:27:21.519Z,101951.56
2023-08-18T03:29:24.297Z,101947.16
2023-08-18T03:31:27.028Z,101948.13
2023-08-18T03:33:30.099Z,101945.53
2023-08-18T03:35:36.791Z,101945.59
2023-08-18T03:37:39.485Z,101942.97
2023-08-18T03:39:42.216Z,101940.38
2023-08-18T03:41:44.919Z,101948.44
2023-08-18T03:43:47.625Z,101934.28
2023-08-18T03:45:50.404Z,101941.47
2023-08-18T03:47:52.560Z,101943.31
2023-08-18T03:49:55.344Z,101953.13
2023-08-18T03:51:59.406Z,101954.09
2023-08-18T03:54:02.194Z,101946.13
2023-08-18T03:56:05.136Z,101948.84
2023-08-18T03:58:08.235Z,101949.84
2023-08-18T04:00:12.332Z,101946.28
2023-08-18T04:02:15.040Z,101947.22
2023-08-18T04:04:17.785Z,101948.09
2023-08-18T04:06:20.516Z,101949.84
2023-08-18T04:08:23.640Z,101943.63
2023-08-18T04:10:26.423Z,101944.50
2023-08-18T04:12:29.677Z,101942.69
2023-08-18T04:14:32.704Z,101941.78
2023-08-18T04:16:35.435Z,101940.03
2023-08-18T04:18:38.176Z,101944.38
2023-08-18T04:20:41.363Z,101946.19
2023-08-18T04:22:44.085Z,101934.59
2023-08-18T04:24:48.203Z,101933.72
2023-08-18T04:26:53.572Z,101935.47
2023-08-18T04:28:56.285Z,101931.91
2023-08-18T04:31:00.446Z,101934.56
2023-08-18T04:33:03.451Z,101932.75
2023-08-18T04:35:07.188Z,101927.44
2023-08-18T04:37:10.803Z,101936.34
2023-08-18T04:39:13.779Z,101936.34
2023-08-18T04:41:17.963Z,101930.13
2023-08-18T04:43:20.765Z,101934.56
2023-08-18T04:45:24.238Z,101936.34
2023-08-18T04:47:27.006Z,101933.69
2023-08-18T04:49:29.854Z,101923.91
2023-08-18T04:51:32.768Z,101917.69
2023-08-18T04:53:35.571Z,101927.44
2023-08-18T04:55:38.758Z,101927.44
2023-08-18T04:57:42.935Z,101932.75
2023-08-18T04:59:44.871Z,101930.09
2023-08-18T05:01:47.702Z,101933.63
2023-08-18T05:03:49.561Z,101930.91
2023-08-18T05:06:00.445Z,101929.97
2023-08-18T05:08:03.244Z,101933.47
2023-08-18T05:10:07.059Z,101933.41
2023-08-18T05:12:10.754Z,101933.28
2023-08-18T05:14:14.921Z,101934.09
2023-08-18T05:16:17.748Z,101935.84
2023-08-18T05:18:21.068Z,101938.38
2023-08-18T05:20:24.194Z,101937.41
2023-08-18T05:22:27.676Z,101932.00
2023-08-18T05:24:30.791Z,101940.75
2023-08-18T05:26:33.575Z,101941.56
2023-08-18T05:28:36.316Z,101950.44
2023-08-18T05:30:40.589Z,101946.75
2023-08-18T05:32:43.411Z,101943.94
2023-08-18T05:34:46.200Z,101946.44
2023-08-18T05:36:49.102Z,101942.78
2023-08-18T05:38:51.829Z,101945.31
2023-08-18T05:40:54.832Z,101943.44
2023-08-18T05:42:57.637Z,101953.13
2023-08-18T05:44:59.413Z,101945.94
2023-08-18T05:47:04.815Z,101944.94
2023-08-18T05:49:07.612Z,101944.00
2023-08-18T05:51:10.402Z,101943.88
2023-08-18T05:53:13.169Z,101948.25
2023-08-18T05:55:16.357Z,101946.31
2023-08-18T05:57:19.189Z,101946.19
2023-08-18T05:59:21.979Z,101943.34
2023-08-18T06:01:26.209Z,101940.44
2023-08-18T06:03:31.536Z,101942.00
2023-08-18T06:05:35.897Z,101939.25
2023-08-18T06:07:40.964Z,101934.78
2023-08-18T06:09:43.731Z,101942.81
2023-08-18T06:11:46.499Z,101945.38
2023-08-18T06:13:49.247Z,101954.22
2023-08-18T06:15:53.768Z,101954.06
2023-08-18T06:17:56.717Z,101958.38
2023-08-18T06:20:00.232Z,101961.78
2023-08-18T06:22:04.153Z,101953.56
2023-08-18T06:24:09.737Z,101953.50
2023-08-18T06:26:12.558Z,101958.66
2023-08-18T06:28:15.306Z,101954.13
2023-08-18T06:30:17.120Z,101960.28
2023-08-18T06:32:19.888Z,101956.47
2023-08-18T06:34:22.721Z,101962.56
2023-08-18T06:36:26.818Z,101953.50
2023-08-18T06:38:28.828Z,101958.59
2023-08-18T06:40:31.733Z,101963.75
2023-08-18T06:42:33.484Z,101961.66
2023-08-18T06:44:36.229Z,101957.00
2023-08-18T06:46:39.003Z,101952.31
2023-08-18T06:48:41.761Z,101951.31
2023-08-18T06:50:44.749Z,101956.59
2023-08-18T06:52:49.318Z,101950.03
2023-08-18T06:54:53.594Z,101944.56
2023-08-18T06:56:57.966Z,101945.28
2023-08-18T06:59:01.337Z,101948.75
2023-08-18T07:01:04.730Z,101954.84
2023-08-18T07:03:07.625Z,101958.16
2023-08-18T07:05:10.598Z,101953.63
2023-08-18T07:07:13.427Z,101963.19
2023-08-18T07:09:16.545Z,101957.63
2023-08-18T07:11:19.486Z,101961.09
2023-08-18T07:13:23.033Z,101965.44
2023-08-18T07:15:25.822Z,101966.09
2023-08-18T07:17:28.643Z,101968.69
2023-08-18T07:19:31.467Z,101972.09
2023-08-18T07:21:34.300Z,101964.84
2023-08-18T07:23:37.142Z,101974.47
2023-08-18T07:25:41.390Z,101969.63
2023-08-18T07:27:44.128Z,101971.00
2023-08-18T07:29:46.861Z,101972.53
2023-08-18T07:31:49.665Z,101973.09
2023-08-18T07:33:53.788Z,101979.91
2023-08-18T07:35:56.530Z,101977.78
2023-08-18T07:37:59.487Z,101966.69
2023-08-18T07:40:02.391Z,101960.16
2023-08-18T07:42:06.675Z,101964.59
2023-08-18T07:44:09.573Z,101965.22
2023-08-18T07:46:12.434Z,101955.94
2023-08-18T07:48:15.217Z,101952.81
2023-08-18T07:50:17.998Z,101954.50
2023-08-18T07:52:20.830Z,101952.53
2023-08-18T07:54:24.544Z,101951.44
2023-08-18T07:56:27.385Z,101951.22
2023-08-18T07:58:31.739Z,101946.41
2023-08-18T08:00:34.927Z,101944.34
2023-08-18T08:02:37.983Z,101946.72
2023-08-18T08:04:40.980Z,101945.44
2023-08-18T08:06:43.732Z,101946.16
2023-08-18T08:08:46.535Z,101944.09
2023-08-18T08:10:49.866Z,101940.16
2023-08-18T08:12:51.730Z,101938.78
2023-08-18T08:14:55.862Z,101942.09
2023-08-18T08:16:59.881Z,101940.03
2023-08-18T08:19:02.604Z,101938.69
2023-08-18T08:21:05.600Z,101935.63
2023-08-18T08:23:08.420Z,101928.97
2023-08-18T08:25:10.734Z,101926.81
2023-08-18T08:27:16.427Z,101927.25
2023-08-18T08:29:19.165Z,101931.34
2023-08-18T08:31:23.422Z,101931.25
2023-08-18T08:33:26.201Z,101932.91
2023-08-18T08:35:29.711Z,101930.84
2023-08-18T08:37:38.167Z,101939.56
2023-08-18T08:39:41.119Z,101932.19
2023-08-18T08:41:43.894Z,101935.66
2023-08-18T08:43:46.881Z,101932.88
2023-08-18T08:45:50.388Z,101931.69
2023-08-18T08:47:57.340Z,101929.69
2023-08-18T08:50:03.862Z,101931.06
2023-08-18T08:52:09.361Z,101929.84
2023-08-18T08:54:13.748Z,101931.22
2023-08-18T08:56:19.478Z,101920.94
2023-08-18T08:58:23.587Z,101919.63
2023-08-18T09:00:28.377Z,101909.38
2023-08-18T09:02:31.812Z,101911.53
2023-08-18T09:04:36.198Z,101916.53
2023-08-18T09:06:43.412Z,101913.59
2023-08-18T09:08:46.809Z,101917.06
2023-08-18T09:10:49.949Z,101913.28
2023-08-18T09:12:52.713Z,101911.25
2023-08-18T09:14:55.881Z,101913.69
2023-08-18T09:16:58.647Z,101917.81
2023-08-18T09:19:02.828Z,101896.97
2023-08-18T09:21:07.572Z,101897.66
2023-08-18T09:23:10.435Z,101900.94
2023-08-18T09:25:13.303Z,101890.94
2023-08-18T09:27:16.507Z,101892.47
2023-08-18T09:29:19.306Z,101886.91
2023-08-18T09:31:22.275Z,101875.88
2023-08-18T09:33:34.192Z,101875.50
2023-08-18T09:35:37.315Z,101876.19
2023-08-18T09:37:41.727Z,101874.84
2023-08-18T09:39:44.549Z,101872.63
2023-08-18T09:41:48.785Z,101871.22
2023-08-18T09:43:51.599Z,101875.34
2023-08-18T09:45:55.937Z,101874.19
2023-08-18T09:47:59.313Z,101865.81
2023-08-18T09:50:06.463Z,101872.84
2023-08-18T09:52:10.121Z,101870.63
2023-08-18T09:54:17.494Z,101870.53
2023-08-18T09:56:26.977Z,101863.97
2023-08-18T09:58:36.493Z,101871.56
2023-08-18T10:00:43.789Z,101866.53
2023-08-18T10:02:48.755Z,101862.78
2023-08-18T10:04:52.539Z,101866.81
2023-08-18T10:06:55.799Z,101865.72
2023-08-18T10:09:00.027Z,101861.03
2023-08-18T10:11:04.219Z,101858.78
2023-08-18T10:13:09.664Z,101859.47
2023-08-18T10:15:13.575Z,101855.31
2023-08-18T10:17:16.954Z,101859.22
2023-08-18T10:19:52.654Z,101862.06
2023-08-18T10:21:55.412Z,101862.88
2023-08-18T10:23:58.230Z,101862.13
2023-08-18T10:26:04.516Z,101864.41
2023-08-18T10:28:08.386Z,101865.59
2023-08-18T10:30:30.783Z,101858.75
2023-08-18T10:32:34.537Z,101860.94
2023-08-18T10:34:38.764Z,101860.50
2023-08-18T10:36:45.954Z,101853.69
2023-08-18T10:38:48.843Z,101862.84
2023-08-18T10:40:52.940Z,101856.84
2023-08-18T10:43:00.782Z,101841.47
2023-08-18T10:45:05.460Z,101846.19
2023-08-18T10:47:33.071Z,101837.13
2023-08-18T10:49:36.198Z,101835.38
2023-08-18T10:51:39.055Z,101829.06
2023-08-18T10:53:43.750Z,101825.94
2023-08-18T10:55:46.682Z,101824.50
2023-08-18T10:57:48.463Z,101817.41
2023-08-18T10:59:52.283Z,101817.25
2023-08-18T11:01:55.214Z,101813.25
2023-08-18T11:03:58.007Z,101810.94
2023-08-18T11:06:00.987Z,101809.41
2023-08-18T11:08:05.107Z,101805.28
2023-08-18T11:10:15.909Z,101808.53
2023-08-18T11:12:18.916Z,101811.06
2023-08-18T11:14:23.597Z,101815.84
2023-08-18T11:16:26.458Z,101814.47
2023-08-18T11:18:30.714Z,101810.22
2023-08-18T11:20:33.711Z,101810.59
2023-08-18T11:22:38.412Z,101807.53
2023-08-18T11:24:41.207Z,101808.38
2023-08-18T11:26:47.364Z,101797.19
2023-08-18T11:28:50.443Z,101793.00
2023-08-18T11:30:55.815Z,101797.38
2023-08-18T11:32:58.650Z,101795.28
2023-08-18T11:35:02.447Z,101791.16
2023-08-18T11:37:06.697Z,101787.44
2023-08-18T11:39:09.571Z,101790.63
2023-08-18T11:41:12.410Z,101780.69
2023-08-18T11:43:17.328Z,101774.31
2023-08-18T11:45:21.569Z,101779.22
2023-08-18T11:47:24.673Z,101779.53
2023-08-18T11:49:27.524Z,101779.63
2023-08-18T11:51:30.447Z,101775.75
2023-08-18T11:53:33.189Z,101774.91
2023-08-18T11:55:37.346Z,101765.16
2023-08-18T11:57:41.928Z,101765.09
2023-08-18T11:59:47.586Z,101764.41
2023-08-18T12:01:55.357Z,101762.75
2023-08-18T12:03:58.891Z,101761.47
2023-08-18T12:06:04.023Z,101758.44
2023-08-18T12:08:10.738Z,101748.44
2023-08-18T12:10:13.980Z,101753.06
2023-08-18T12:12:17.483Z,101747.97
2023-08-18T12:14:21.431Z,101746.72
2023-08-18T12:16:25.573Z,101751.44
2023-08-18T12:18:29.436Z,101753.91
2023-08-18T12:20:33.411Z,101748.25
2023-08-18T12:22:36.189Z,101741.13
2023-08-18T12:24:38.948Z,101733.06
2023-08-18T12:26:42.620Z,101733.06
2023-08-18T12:28:46.127Z,101738.06
2023-08-18T12:30:48.943Z,101738.38
2023-08-18T12:32:53.277Z,101736.44
2023-08-18T12:34:56.054Z,101732.69
2023-08-18T12:37:00.740Z,101729.13
2023-08-18T12:39:04.142Z,101742.75
2023-08-18T12:41:06.919Z,101730.28
2023-08-18T12:43:10.221Z,101723.56
2023-08-18T12:45:13.297Z,101726.38
2023-08-18T12:47:16.172Z,101726.63
2023-08-18T12:49:20.261Z,101727.88
2023-08-18T12:51:23.035Z,101733.59
2023-08-18T12:53:25.802Z,101736.47
2023-08-18T12:55:28.558Z,101730.31
2023-08-18T12:57:31.344Z,101725.03
2023-08-18T12:59:34.102Z,101722.91
2023-08-18T13:01:37.764Z,101725.94
2023-08-18T13:03:40.676Z,101725.59
2023-08-18T13:05:44.817Z,101726.97
2023-08-18T13:07:48.700Z,101729.75
2023-08-18T13:09:50.478Z,101726.47
2023-08-18T13:11:53.239Z,101731.81
2023-08-18T13:13:56.120Z,101729.53
2023-08-18T13:15:58.852Z,101721.81
2023-08-18T13:18:01.734Z,101724.09
2023-08-18T13:20:03.646Z,101715.97
2023-08-18T13:22:07.885Z,101729.16
2023-08-18T13:24:10.665Z,101718.00
2023-08-18T13:26:13.847Z,101719.41
2023-08-18T13:28:17.986Z,101720.13
2023-08-18T13:30:20.799Z,101715.97
2023-08-18T13:32:23.565Z,101711.94
2023-08-18T13:34:26.387Z,101707.34
2023-08-18T13:36:29.160Z,101710.50
2023-08-18T13:38:33.283Z,101713.25
2023-08-18T13:40:36.042Z,101709.06
2023-08-18T13:42:38.838Z,101700.59
2023-08-18T13:44:41.595Z,101702.06
2023-08-18T13:46:45.311Z,101693.72
2023-08-18T13:48:48.128Z,101701.03
2023-08-18T13:50:50.905Z,101697.63
2023-08-18T13:52:53.660Z,101694.47
2023-08-18T13:54:57.868Z,101697.75
2023-08-18T13:57:00.620Z,101690.44
2023-08-18T13:59:03.575Z,101689.19
2023-08-18T14:01:05.496Z,101690.22
2023-08-18T14:03:08.469Z,101685.50
2023-08-18T14:05:11.735Z,101688.09
2023-08-18T14:07:14.488Z,101687.06
2023-08-18T14:09:19.446Z,101681.63
2023-08-18T14:11:23.570Z,101685.34
2023-08-18T14:13:26.707Z,101669.88
2023-08-18T14:15:29.548Z,101667.31
2023-08-18T14:17:36.754Z,101666.19
2023-08-18T14:19:39.594Z,101670.78
2023-08-18T14:21:42.717Z,101667.03
2023-08-18T14:23:45.480Z,101671.34
2023-08-18T14:25:48.228Z,101666.47
2023-08-18T14:27:53.981Z,101664.44
2023-08-18T14:29:56.947Z,101670.91
2023-08-18T14:31:59.818Z,101664.75
2023-08-18T14:34:02.637Z,101665.03
2023-08-18T14:36:05.925Z,101662.47
2023-08-18T14:38:09.643Z,101657.88
2023-08-18T14:40:13.936Z,101659.13
2023-08-18T14:42:16.682Z,101669.47
2023-08-18T14:44:20.911Z,101651.81
2023-08-18T14:46:23.838Z,101656.41
2023-08-18T14:48:29.753Z,101659.41
2023-08-18T14:50:35.637Z,101652.84
2023-08-18T14:52:38.390Z,101653.00
2023-08-18T14:54:41.590Z,101649.72
2023-08-18T14:56:44.428Z,101649.00
2023-08-18T14:58:47.374Z,101646.41
2023-08-18T15:00:52.366Z,101643.69
2023-08-18T15:02:55.450Z,101645.28
2023-08-18T15:04:58.394Z,101639.97
2023-08-18T15:07:02.974Z,101641.84
2023-08-18T15:09:06.829Z,101637.56
2023-08-18T15:11:09.650Z,101633.25
2023-08-18T15:13:12.420Z,101628.09
2023-08-18T15:15:15.230Z,101624.38
2023-08-18T15:17:19.410Z,101627.09
2023-08-18T15:19:25.692Z,101626.97
2023-08-18T15:21:28.448Z,101629.69
2023-08-18T15:23:30.190Z,101627.66
2023-08-18T15:25:32.952Z,101630.41
2023-08-18T15:27:35.184Z,101631.53
2023-08-18T15:29:38.926Z,101635.41
2023-08-18T15:31:42.108Z,101635.84
2023-08-18T15:33:46.259Z,101634.53
2023-08-18T15:35:48.082Z,101635.66
2023-08-18T15:37:52.058Z,101638.69
2023-08-18T15:39:54.811Z,101635.38
2023-08-18T15:41:57.545Z,101631.25
2023-08-18T15:44:00.414Z,101632.53
2023-08-18T15:46:05.710Z,101626.09
2023-08-18T15:48:09.945Z,101626.19
2023-08-18T15:50:14.186Z,101627.19
2023-08-18T15:52:18.366Z,101630.78
2023-08-18T15:54:22.811Z,101625.22
2023-08-18T15:56:25.571Z,101625.09
2023-08-18T15:58:29.263Z,101621.22
2023-08-18T16:00:32.565Z,101622.78
2023-08-18T16:02:36.394Z,101616.06
2023-08-18T16:04:41.340Z,101627.66
2023-08-18T16:06:45.423Z,101619.50
2023-08-18T16:08:48.183Z,101624.22
2023-08-18T16:10:50.100Z,101627.22
2023-08-18T16:12:52.868Z,101624.81
2023-08-18T16:15:24.180Z,101626.34
2023-08-18T16:17:18.333Z,101623.91
2023-08-18T16:19:23.322Z,101624.19
2023-08-18T16:21:26.124Z,101617.03
2023-08-18T16:23:30.232Z,101607.59
2023-08-18T16:25:32.047Z,101613.19
2023-08-18T16:27:35.022Z,101606.31
2023-08-18T16:29:36.843Z,101602.00
2023-08-18T16:31:39.772Z,101611.03
2023-08-18T16:33:42.541Z,101609.03
2023-08-18T16:35:48.359Z,101603.31
2023-08-18T16:37:52.304Z,101602.31
2023-08-18T16:39:56.412Z,101601.16
2023-08-18T16:41:59.770Z,101601.03
2023-08-18T16:44:02.582Z,101609.19
2023-08-18T16:46:05.489Z,101596.75
2023-08-18T16:48:08.719Z,101590.72
2023-08-18T16:50:11.842Z,101590.00
2023-08-18T16:52:14.760Z,101595.69
2023-08-18T16:54:17.497Z,101592.41
2023-08-18T16:56:21.740Z,101583.69
2023-08-18T16:58:25.294Z,101589.69
2023-08-18T17:00:28.085Z,101596.25
2023-08-18T17:02:30.895Z,101588.41
2023-08-18T17:04:34.354Z,101597.69
2023-08-18T17:06:37.449Z,101596.09
2023-08-18T17:08:40.648Z,101598.25
2023-08-18T17:10:43.431Z,101591.25
2023-08-18T17:12:47.606Z,101588.09
2023-08-18T17:14:50.399Z,101585.75
2023-08-18T17:16:53.176Z,101588.72
2023-08-18T17:18:55.967Z,101580.72
2023-08-18T17:20:58.728Z,101578.75
2023-08-18T17:23:01.532Z,101586.91
2023-08-18T17:25:04.608Z,101577.84
2023-08-18T17:27:07.445Z,101578.75
2023-08-18T17:29:11.577Z,101583.03
2023-08-18T17:31:14.531Z,101578.47
2023-08-18T17:33:17.423Z,101584.91
2023-08-18T17:35:20.194Z,101584.91
2023-08-18T17:37:23.365Z,101583.03
2023-08-18T17:39:26.148Z,101582.19
2023-08-18T17:41:30.176Z,101578.75
2023-08-18T17:43:34.904Z,101580.13
2023-08-18T17:45:41.233Z,101578.84
2023-08-18T17:47:44.245Z,101576.69
2023-08-18T17:49:47.137Z,101573.53
2023-08-18T17:51:49.546Z,101576.66
2023-08-18T17:53:52.333Z,101579.91
2023-08-18T17:55:54.313Z,101584.19
2023-08-18T17:57:57.082Z,101580.97
2023-08-18T18:00:00.056Z,101585.25
2023-08-18T18:02:04.323Z,101592.16
2023-08-18T18:04:07.473Z,101593.56
2023-08-18T18:06:11.921Z,101599.25
2023-08-18T18:08:16.289Z,101600.66
2023-08-18T18:10:19.129Z,101599.34
2023-08-18T18:12:22.024Z,101603.44
2023-08-18T18:14:24.791Z,101606.31
2023-08-18T18:16:27.595Z,101604.94
2023-08-18T18:18:31.702Z,101611.75
2023-08-18T18:20:35.070Z,101615.88
2023-08-18T18:22:37.873Z,101618.84
2023-08-18T18:24:40.976Z,101614.66
2023-08-18T18:26:43.764Z,101620.34
2023-08-18T18:28:46.493Z,101618.91
2023-08-18T18:30:50.217Z,101615.47
2023-08-18T18:32:53.074Z,101628.38
2023-08-18T18:34:57.222Z,101624.06
2023-08-18T18:37:00.012Z,101620.78
2023-08-18T18:39:02.781Z,101622.13
2023-08-18T18:41:05.695Z,101621.53
2023-08-18T18:43:08.470Z,101620.91
2023-08-18T18:45:11.790Z,101615.75
2023-08-18T18:47:16.694Z,101618.84
2023-08-18T18:49:21.721Z,101619.25
2023-08-18T18:51:25.903Z,101625.78
2023-08-18T18:53:28.753Z,101619.03
2023-08-18T18:55:32.569Z,101625.69
2023-08-18T18:57:35.559Z,101626.81
2023-08-18T18:59:38.298Z,101624.56
2023-08-18T19:01:41.122Z,101625.56
2023-08-18T19:03:44.085Z,101625.94
2023-08-18T19:05:46.907Z,101626.19
2023-08-18T19:07:51.089Z,101630.09
2023-08-18T19:09:53.856Z,101623.22
2023-08-18T19:11:56.845Z,101628.03
2023-08-18T19:13:59.572Z,101626.56
2023-08-18T19:16:08.087Z,101630.50
2023-08-18T19:18:15.076Z,101630.88
2023-08-18T19:20:30.007Z,101629.53
2023-08-18T19:22:34.698Z,101633.34
2023-08-18T19:24:42.261Z,101631.72
2023-08-18T19:26:48.731Z,101631.09
2023-08-18T19:28:55.715Z,101634.06
2023-08-18T19:31:03.418Z,101644.13
2023-08-18T19:33:09.477Z,101639.84
2023-08-18T19:35:16.392Z,101652.75
2023-08-18T19:37:19.501Z,101653.13
2023-08-18T19:39:22.261Z,101654.22
2023-08-18T19:41:26.372Z,101649.91
2023-08-18T19:43:29.194Z,101659.38
2023-08-18T19:45:32.308Z,101658.63
2023-08-18T19:47:34.270Z,101656.25
2023-08-18T19:49:37.048Z,101650.13
2023-08-18T19:51:39.801Z,101648.53
2023-08-18T19:53:42.566Z,101652.16
2023-08-18T19:55:47.294Z,101643.31
2023-08-18T19:57:51.410Z,101647.25
2023-08-18T19:59:54.360Z,101644.91
2023-08-18T20:01:57.085Z,101642.31
2023-08-18T20:03:59.876Z,101639.97
2023-08-18T20:06:04.625Z,101639.34
2023-08-18T20:08:08.325Z,101644.03
2023-08-18T20:10:11.873Z,101644.25
2023-08-18T20:12:14.673Z,101643.53
2023-08-18T20:14:18.797Z,101640.94
2023-08-18T20:16:21.717Z,101646.69
2023-08-18T20:18:24.857Z,101644.22
2023-08-18T20:20:27.732Z,101638.94
2023-08-18T20:22:30.863Z,101642.75
2023-08-18T20:24:33.844Z,101633.00
2023-08-18T20:26:36.773Z,101626.84
2023-08-18T20:28:39.679Z,101630.78
2023-08-18T20:30:47.183Z,101633.72
2023-08-18T20:32:54.622Z,101627.56
2023-08-18T20:34:57.774Z,101629.53
2023-08-18T20:37:00.539Z,101624.34
2023-08-18T20:39:03.356Z,101617.31
2023-08-18T20:41:10.182Z,101624.56
2023-08-18T20:43:13.713Z,101623.81
2023-08-18T20:45:16.529Z,101624.91
2023-08-18T20:47:20.675Z,101618.75
2023-08-18T20:49:23.431Z,101618.03
2023-08-18T20:51:26.268Z,101620.84
2023-08-18T20:53:29.012Z,101620.22
2023-08-18T20:55:31.827Z,101615.66
2023-08-18T20:57:35.450Z,101620.44
2023-08-18T20:59:38.204Z,101616.03
2023-08-18T21:01:40.951Z,101611.94
2023-08-18T21:03:45.411Z,101612.03
2023-08-18T21:05:47.839Z,101618.41
2023-08-18T21:07:50.568Z,101612.25
2023-08-18T21:09:53.887Z,101613.22
2023-08-18T21:11:56.701Z,101612.50
2023-08-18T21:13:59.558Z,101611.75
2023-08-18T21:16:02.688Z,101607.44
2023-08-18T21:18:05.944Z,101594.06
2023-08-18T21:20:12.499Z,101594.06
2023-08-18T21:22:15.295Z,101600.44
2023-08-18T21:24:18.174Z,101596.97
2023-08-18T21:26:21.249Z,101601.75
2023-08-18T21:28:24.002Z,101601.00
2023-08-18T21:30:26.843Z,101603.94
2023-08-18T21:32:30.820Z,101607.63
2023-08-18T21:34:33.807Z,101597.03
2023-08-18T21:36:37.915Z,101603.53
2023-08-18T21:38:40.673Z,101599.09
2023-08-18T21:40:43.395Z,101604.75
2023-08-18T21:42:46.105Z,101596.88
2023-08-18T21:44:47.923Z,101603.34
2023-08-18T21:46:50.670Z,101596.31
2023-08-18T21:48:53.508Z,101591.00
2023-08-18T21:50:58.029Z,101592.94
2023-08-18T21:53:02.102Z,101591.34
2023-08-18T21:55:05.503Z,101595.13
2023-08-18T21:57:08.562Z,101598.91
2023-08-18T21:59:11.318Z,101599.13
2023-08-18T22:01:13.239Z,101603.78
2023-08-18T22:03:16.137Z,101600.34
2023-08-18T22:05:19.056Z,101592.47
2023-08-18T22:07:21.837Z,101597.13
2023-08-18T22:09:26.056Z,101602.72
2023-08-18T22:11:28.781Z,101602.84
2023-08-18T22:13:31.534Z,101596.69
2023-08-18T22:15:34.539Z,101602.22
2023-08-18T22:17:37.384Z,101605.13
2023-08-18T22:19:40.231Z,101602.53
2023-08-18T22:21:43.852Z,101601.03
2023-08-18T22:23:45.612Z,101603.84
2023-08-18T22:25:49.843Z,101603.91
2023-08-18T22:27:52.586Z,101594.22
2023-08-18T22:29:55.759Z,101595.31
2023-08-18T22:31:58.545Z,101596.38
2023-08-18T22:34:01.304Z,101595.63
2023-08-18T22:36:03.184Z,101597.56
2023-08-18T22:38:06.028Z,101594.25
2023-08-18T22:40:09.104Z,101588.09
2023-08-18T22:42:13.228Z,101599.97
2023-08-18T22:44:15.945Z,101595.66
2023-08-18T22:46:18.754Z,101585.94
2023-08-18T22:48:22.174Z,101596.84
2023-08-18T22:50:25.056Z,101603.19
2023-08-18T22:52:26.819Z,101595.31
2023-08-18T22:54:29.987Z,101590.03
2023-08-18T22:56:32.746Z,101593.69
2023-08-18T22:58:37.070Z,101586.69
2023-08-18T23:00:38.895Z,101585.91
2023-08-18T23:02:41.790Z,101587.88
2023-08-18T23:04:44.595Z,101579.88
2023-08-18T23:06:47.338Z,101582.69
2023-08-18T23:08:50.115Z,101582.75
2023-08-18T23:10:52.910Z,101586.53
2023-08-18T23:12:55.667Z,101589.34
2023-08-18T23:14:59.783Z,101584.06
2023-08-18T23:17:02.560Z,101586.88
2023-08-18T23:19:04.777Z,101590.53
2023-08-18T23:21:07.530Z,101579.00
2023-08-18T23:23:10.283Z,101578.25
2023-08-18T23:25:13.189Z,101579.31
2023-08-18T23:27:16.094Z,101586.53
2023-08-18T23:29:18.858Z,101582.13
2023-08-18T23:31:23.468Z,101574.16